Portada
METAR-TAF:

METAR-TAF

Aeroports :

Lord Howe Island, Austràlia

latitud: 31-32-18S, longitud: 159-04-38E, altitud: 5 m

Observació

L'informe es va fer fa 14 minuts, a les 11:41 UTC
Vent 10 kt del Sud/Sud-Oest
Temperatura 22°C
Humitat 100%
Pressió 1012 hPa
Visibilitat: 8000 m
Núvols disperses a una alçada de 500 ft
Núvols disperses a una alçada de 900 ft
Cel ennuvolat a una alçada de 1200 ft

METAR: YLHI 071141Z AUTO 21010KT 8000 // SCT005 SCT009 BKN012 22/22 Q1012

Hora: 22:55 (11:55 UTC)

Pronòstic

L'informe es va fer fa 15 minuts, a les 11:40 UTC
Pronòstic vàlid del 07 a les 12 UTC al 08 a les 12 UTC
Vent 10 kt del Sud
Visibilitat 10 km o més
Núvols disperses a una alçada de 2000 ft
xàfecs de pluja

TAF: YLHI 071140Z 0712/0812 17010KT 9999 -SHRA SCT020

Observacions i pronòstics meteorològics de més de 4000 aeroports (METAR i TAF).

Les estacions disponibles són els punts grocs i vermells al mapa.

Posi el ratolí al punt desitjat per veure el nom de l'estació.

Feu clic per veure les observacions i els pronòstics meteorològics.

Per canviar el mapa: feu clic els botons verds amb una creu de color negre per apropar; al botó verd amb un guió per allunyar la imatge; o en les fletxes verdes per a mapes adjacents.


METAR-TAF: